sensor_id;sensor_type;location;lat;lon;timestamp;P1;durP1;ratioP1;P2;durP2;ratioP2
11996;SDS011;6058;48.704;9.474;2023-06-14T00:01:47;6.00;;;3.00;;
11996;SDS011;6058;48.704;9.474;2023-06-14T00:04:14;2.93;;;2.70;;
11996;SDS011;6058;48.704;9.474;2023-06-14T00:06:43;3.30;;;3.00;;
11996;SDS011;6058;48.704;9.474;2023-06-14T00:09:10;9.90;;;3.33;;
11996;SDS011;6058;48.704;9.474;2023-06-14T00:11:38;3.10;;;2.80;;
11996;SDS011;6058;48.704;9.474;2023-06-14T00:14:06;3.70;;;2.70;;
11996;SDS011;6058;48.704;9.474;2023-06-14T00:16:33;3.47;;;3.17;;
11996;SDS011;6058;48.704;9.474;2023-06-14T00:19:02;3.13;;;2.83;;
11996;SDS011;6058;48.704;9.474;2023-06-14T00:21:29;4.57;;;2.90;;
11996;SDS011;6058;48.704;9.474;2023-06-14T00:23:57;3.73;;;3.03;;
11996;SDS011;6058;48.704;9.474;2023-06-14T00:26:24;3.30;;;2.83;;
11996;SDS011;6058;48.704;9.474;2023-06-14T00:28:51;6.50;;;2.70;;
11996;SDS011;6058;48.704;9.474;2023-06-14T00:31:20;3.23;;;2.93;;
11996;SDS011;6058;48.704;9.474;2023-06-14T00:33:47;2.80;;;2.50;;
11996;SDS011;6058;48.704;9.474;2023-06-14T00:36:14;4.97;;;3.43;;
11996;SDS011;6058;48.704;9.474;2023-06-14T00:38:41;3.83;;;3.07;;
11996;SDS011;6058;48.704;9.474;2023-06-14T00:41:09;4.53;;;2.90;;
11996;SDS011;6058;48.704;9.474;2023-06-14T00:43:36;5.33;;;2.97;;
11996;SDS011;6058;48.704;9.474;2023-06-14T00:46:03;6.27;;;3.00;;
11996;SDS011;6058;48.704;9.474;2023-06-14T00:48:31;3.60;;;2.80;;
11996;SDS011;6058;48.704;9.474;2023-06-14T00:50:59;6.27;;;3.40;;
11996;SDS011;6058;48.704;9.474;2023-06-14T00:53:29;3.20;;;2.77;;
11996;SDS011;6058;48.704;9.474;2023-06-14T00:55:58;3.90;;;3.00;;
11996;SDS011;6058;48.704;9.474;2023-06-14T00:58:26;3.30;;;2.77;;
11996;SDS011;6058;48.704;9.474;2023-06-14T01:00:53;4.00;;;2.80;;
11996;SDS011;6058;48.704;9.474;2023-06-14T01:03:21;2.90;;;2.70;;
11996;SDS011;6058;48.704;9.474;2023-06-14T01:05:50;3.20;;;2.90;;
11996;SDS011;6058;48.704;9.474;2023-06-14T01:08:21;3.13;;;2.60;;
11996;SDS011;6058;48.704;9.474;2023-06-14T01:10:52;4.47;;;3.23;;
11996;SDS011;6058;48.704;9.474;2023-06-14T01:13:20;2.57;;;2.37;;
11996;SDS011;6058;48.704;9.474;2023-06-14T01:15:48;3.87;;;2.70;;
11996;SDS011;6058;48.704;9.474;2023-06-14T01:18:17;3.63;;;3.30;;
11996;SDS011;6058;48.704;9.474;2023-06-14T01:20:45;3.60;;;3.10;;
11996;SDS011;6058;48.704;9.474;2023-06-14T01:23:15;4.57;;;3.30;;
11996;SDS011;6058;48.704;9.474;2023-06-14T01:25:42;3.73;;;3.00;;
11996;SDS011;6058;48.704;9.474;2023-06-14T01:28:10;7.40;;;3.20;;
11996;SDS011;6058;48.704;9.474;2023-06-14T01:30:40;3.03;;;2.73;;
11996;SDS011;6058;48.704;9.474;2023-06-14T01:33:10;3.97;;;3.10;;
11996;SDS011;6058;48.704;9.474;2023-06-14T01:35:37;4.53;;;2.67;;
11996;SDS011;6058;48.704;9.474;2023-06-14T01:38:04;5.33;;;2.73;;
11996;SDS011;6058;48.704;9.474;2023-06-14T01:40:34;3.43;;;3.13;;
11996;SDS011;6058;48.704;9.474;2023-06-14T01:43:01;3.03;;;2.53;;
11996;SDS011;6058;48.704;9.474;2023-06-14T01:45:30;2.93;;;2.63;;
11996;SDS011;6058;48.704;9.474;2023-06-14T01:47:57;3.30;;;2.90;;
11996;SDS011;6058;48.704;9.474;2023-06-14T01:50:27;4.07;;;2.97;;
11996;SDS011;6058;48.704;9.474;2023-06-14T01:52:55;5.27;;;3.03;;
11996;SDS011;6058;48.704;9.474;2023-06-14T01:55:22;5.57;;;3.23;;
11996;SDS011;6058;48.704;9.474;2023-06-14T01:57:51;3.40;;;3.10;;
11996;SDS011;6058;48.704;9.474;2023-06-14T02:00:18;2.73;;;2.53;;
11996;SDS011;6058;48.704;9.474;2023-06-14T02:02:48;3.27;;;3.07;;
11996;SDS011;6058;48.704;9.474;2023-06-14T02:05:15;3.27;;;2.97;;
11996;SDS011;6058;48.704;9.474;2023-06-14T02:07:43;3.50;;;3.20;;
11996;SDS011;6058;48.704;9.474;2023-06-14T02:10:11;4.07;;;3.27;;
11996;SDS011;6058;48.704;9.474;2023-06-14T02:12:38;3.87;;;3.00;;
11996;SDS011;6058;48.704;9.474;2023-06-14T02:15:07;3.80;;;2.77;;
11996;SDS011;6058;48.704;9.474;2023-06-14T02:17:35;3.40;;;2.97;;
11996;SDS011;6058;48.704;9.474;2023-06-14T02:20:02;3.43;;;3.13;;
11996;SDS011;6058;48.704;9.474;2023-06-14T02:22:30;7.80;;;3.20;;
11996;SDS011;6058;48.704;9.474;2023-06-14T02:24:57;3.50;;;3.10;;
11996;SDS011;6058;48.704;9.474;2023-06-14T02:27:25;3.07;;;2.83;;
11996;SDS011;6058;48.704;9.474;2023-06-14T02:29:52;3.40;;;3.03;;
11996;SDS011;6058;48.704;9.474;2023-06-14T02:32:20;3.87;;;3.10;;
11996;SDS011;6058;48.704;9.474;2023-06-14T02:34:48;3.07;;;2.87;;
11996;SDS011;6058;48.704;9.474;2023-06-14T02:37:15;3.43;;;3.13;;
11996;SDS011;6058;48.704;9.474;2023-06-14T02:39:42;3.30;;;2.90;;
11996;SDS011;6058;48.704;9.474;2023-06-14T02:42:09;3.83;;;3.40;;
11996;SDS011;6058;48.704;9.474;2023-06-14T02:44:37;3.77;;;3.33;;
11996;SDS011;6058;48.704;9.474;2023-06-14T02:47:04;3.87;;;3.30;;
11996;SDS011;6058;48.704;9.474;2023-06-14T02:49:32;3.30;;;3.00;;
11996;SDS011;6058;48.704;9.474;2023-06-14T02:52:00;4.20;;;2.93;;
11996;SDS011;6058;48.704;9.474;2023-06-14T02:54:27;4.57;;;3.30;;
11996;SDS011;6058;48.704;9.474;2023-06-14T02:56:54;5.80;;;3.20;;
11996;SDS011;6058;48.704;9.474;2023-06-14T02:59:21;3.23;;;2.90;;
11996;SDS011;6058;48.704;9.474;2023-06-14T03:01:50;2.80;;;2.60;;
11996;SDS011;6058;48.704;9.474;2023-06-14T03:04:17;6.10;;;3.37;;
11996;SDS011;6058;48.704;9.474;2023-06-14T03:06:45;4.00;;;3.00;;
11996;SDS011;6058;48.704;9.474;2023-06-14T03:09:15;5.47;;;3.00;;
11996;SDS011;6058;48.704;9.474;2023-06-14T03:11:42;3.20;;;2.93;;
11996;SDS011;6058;48.704;9.474;2023-06-14T03:14:09;3.23;;;2.93;;
11996;SDS011;6058;48.704;9.474;2023-06-14T03:16:38;3.10;;;2.80;;
11996;SDS011;6058;48.704;9.474;2023-06-14T03:19:06;3.77;;;3.20;;
11996;SDS011;6058;48.704;9.474;2023-06-14T03:21:33;4.37;;;3.30;;
11996;SDS011;6058;48.704;9.474;2023-06-14T03:24:02;7.07;;;3.60;;
11996;SDS011;6058;48.704;9.474;2023-06-14T03:26:29;3.80;;;3.50;;
11996;SDS011;6058;48.704;9.474;2023-06-14T03:28:59;4.33;;;3.60;;
11996;SDS011;6058;48.704;9.474;2023-06-14T03:31:28;3.23;;;2.93;;
11996;SDS011;6058;48.704;9.474;2023-06-14T03:33:57;3.57;;;3.27;;
11996;SDS011;6058;48.704;9.474;2023-06-14T03:36:24;3.07;;;2.87;;
11996;SDS011;6058;48.704;9.474;2023-06-14T03:38:52;3.50;;;3.20;;
11996;SDS011;6058;48.704;9.474;2023-06-14T03:41:21;3.67;;;3.13;;
11996;SDS011;6058;48.704;9.474;2023-06-14T03:43:48;4.53;;;3.57;;
11996;SDS011;6058;48.704;9.474;2023-06-14T03:46:15;5.30;;;3.60;;
11996;SDS011;6058;48.704;9.474;2023-06-14T03:48:42;4.37;;;3.40;;
11996;SDS011;6058;48.704;9.474;2023-06-14T03:51:17;3.80;;;3.40;;
11996;SDS011;6058;48.704;9.474;2023-06-14T03:53:44;3.57;;;3.23;;
11996;SDS011;6058;48.704;9.474;2023-06-14T03:56:11;4.60;;;3.20;;
11996;SDS011;6058;48.704;9.474;2023-06-14T03:58:39;4.13;;;3.70;;
11996;SDS011;6058;48.704;9.474;2023-06-14T04:01:07;5.43;;;3.57;;
11996;SDS011;6058;48.704;9.474;2023-06-14T04:03:37;5.03;;;3.73;;
11996;SDS011;6058;48.704;9.474;2023-06-14T04:06:05;4.40;;;3.80;;
11996;SDS011;6058;48.704;9.474;2023-06-14T04:08:32;5.87;;;3.93;;
11996;SDS011;6058;48.704;9.474;2023-06-14T04:11:00;4.23;;;3.83;;
11996;SDS011;6058;48.704;9.474;2023-06-14T04:13:27;4.67;;;3.47;;
11996;SDS011;6058;48.704;9.474;2023-06-14T04:15:56;4.23;;;3.47;;
11996;SDS011;6058;48.704;9.474;2023-06-14T04:18:24;5.10;;;3.30;;
11996;SDS011;6058;48.704;9.474;2023-06-14T04:20:51;4.17;;;3.77;;
11996;SDS011;6058;48.704;9.474;2023-06-14T04:23:19;4.07;;;3.53;;
11996;SDS011;6058;48.704;9.474;2023-06-14T04:25:47;3.90;;;3.40;;
11996;SDS011;6058;48.704;9.474;2023-06-14T04:28:14;4.37;;;3.30;;
11996;SDS011;6058;48.704;9.474;2023-06-14T04:30:42;4.97;;;3.63;;
11996;SDS011;6058;48.704;9.474;2023-06-14T04:33:11;4.17;;;3.77;;
11996;SDS011;6058;48.704;9.474;2023-06-14T04:35:38;4.17;;;3.77;;
11996;SDS011;6058;48.704;9.474;2023-06-14T04:38:05;4.20;;;3.03;;
11996;SDS011;6058;48.704;9.474;2023-06-14T04:40:34;3.97;;;3.47;;
11996;SDS011;6058;48.704;9.474;2023-06-14T04:43:07;3.73;;;3.33;;
11996;SDS011;6058;48.704;9.474;2023-06-14T04:45:37;3.60;;;3.30;;
11996;SDS011;6058;48.704;9.474;2023-06-14T04:48:05;6.30;;;3.47;;
11996;SDS011;6058;48.704;9.474;2023-06-14T04:50:34;4.33;;;3.40;;
11996;SDS011;6058;48.704;9.474;2023-06-14T04:53:01;5.17;;;3.00;;
11996;SDS011;6058;48.704;9.474;2023-06-14T04:55:28;5.53;;;3.40;;
11996;SDS011;6058;48.704;9.474;2023-06-14T04:57:56;3.70;;;3.40;;
11996;SDS011;6058;48.704;9.474;2023-06-14T05:00:23;5.93;;;3.70;;
11996;SDS011;6058;48.704;9.474;2023-06-14T05:02:50;3.70;;;3.03;;
11996;SDS011;6058;48.704;9.474;2023-06-14T05:05:18;4.53;;;3.30;;
11996;SDS011;6058;48.704;9.474;2023-06-14T05:07:47;3.87;;;3.30;;
11996;SDS011;6058;48.704;9.474;2023-06-14T05:10:14;4.50;;;3.40;;
11996;SDS011;6058;48.704;9.474;2023-06-14T05:12:41;4.30;;;3.80;;
11996;SDS011;6058;48.704;9.474;2023-06-14T05:15:09;4.47;;;3.87;;
11996;SDS011;6058;48.704;9.474;2023-06-14T05:17:36;5.07;;;4.00;;
11996;SDS011;6058;48.704;9.474;2023-06-14T05:20:06;4.20;;;3.80;;
11996;SDS011;6058;48.704;9.474;2023-06-14T05:22:35;4.47;;;3.93;;
11996;SDS011;6058;48.704;9.474;2023-06-14T05:25:03;5.53;;;3.80;;
11996;SDS011;6058;48.704;9.474;2023-06-14T05:27:31;5.10;;;3.80;;
11996;SDS011;6058;48.704;9.474;2023-06-14T05:30:00;6.70;;;3.60;;
11996;SDS011;6058;48.704;9.474;2023-06-14T05:32:28;6.40;;;3.93;;
11996;SDS011;6058;48.704;9.474;2023-06-14T05:34:56;4.07;;;3.67;;
11996;SDS011;6058;48.704;9.474;2023-06-14T05:37:23;5.73;;;4.40;;
11996;SDS011;6058;48.704;9.474;2023-06-14T05:39:50;4.70;;;3.67;;
11996;SDS011;6058;48.704;9.474;2023-06-14T05:42:19;4.10;;;3.70;;
11996;SDS011;6058;48.704;9.474;2023-06-14T05:44:46;5.47;;;4.13;;
11996;SDS011;6058;48.704;9.474;2023-06-14T05:47:13;4.53;;;4.13;;
11996;SDS011;6058;48.704;9.474;2023-06-14T05:49:40;6.50;;;4.30;;
11996;SDS011;6058;48.704;9.474;2023-06-14T05:52:07;6.33;;;4.47;;
11996;SDS011;6058;48.704;9.474;2023-06-14T05:54:36;7.10;;;4.00;;
11996;SDS011;6058;48.704;9.474;2023-06-14T05:57:04;5.90;;;4.70;;
11996;SDS011;6058;48.704;9.474;2023-06-14T05:59:32;5.37;;;3.97;;
11996;SDS011;6058;48.704;9.474;2023-06-14T06:01:59;4.70;;;3.83;;
11996;SDS011;6058;48.704;9.474;2023-06-14T06:04:26;4.90;;;4.30;;
11996;SDS011;6058;48.704;9.474;2023-06-14T06:06:54;6.18;;;4.10;;
11996;SDS011;6058;48.704;9.474;2023-06-14T06:09:21;4.70;;;4.20;;
11996;SDS011;6058;48.704;9.474;2023-06-14T06:11:48;5.00;;;4.03;;
11996;SDS011;6058;48.704;9.474;2023-06-14T06:14:15;4.83;;;4.23;;
11996;SDS011;6058;48.704;9.474;2023-06-14T06:16:43;5.37;;;4.13;;
11996;SDS011;6058;48.704;9.474;2023-06-14T06:19:10;4.47;;;3.67;;
11996;SDS011;6058;48.704;9.474;2023-06-14T06:21:37;11.77;;;3.80;;
11996;SDS011;6058;48.704;9.474;2023-06-14T06:24:05;6.70;;;3.77;;
11996;SDS011;6058;48.704;9.474;2023-06-14T06:26:32;5.43;;;3.73;;
11996;SDS011;6058;48.704;9.474;2023-06-14T06:28:59;4.33;;;3.93;;
11996;SDS011;6058;48.704;9.474;2023-06-14T06:31:26;5.53;;;3.73;;
11996;SDS011;6058;48.704;9.474;2023-06-14T06:33:55;5.07;;;4.03;;
11996;SDS011;6058;48.704;9.474;2023-06-14T06:36:22;5.00;;;4.23;;
11996;SDS011;6058;48.704;9.474;2023-06-14T06:38:49;6.18;;;3.63;;
11996;SDS011;6058;48.704;9.474;2023-06-14T06:41:16;4.57;;;3.80;;
11996;SDS011;6058;48.704;9.474;2023-06-14T06:43:43;4.55;;;3.78;;
11996;SDS011;6058;48.704;9.474;2023-06-14T06:46:10;5.00;;;3.80;;
11996;SDS011;6058;48.704;9.474;2023-06-14T06:48:38;4.15;;;3.75;;
11996;SDS011;6058;48.704;9.474;2023-06-14T06:51:07;6.70;;;3.40;;
11996;SDS011;6058;48.704;9.474;2023-06-14T06:53:34;3.95;;;3.55;;
11996;SDS011;6058;48.704;9.474;2023-06-14T06:56:01;4.78;;;3.38;;
11996;SDS011;6058;48.704;9.474;2023-06-14T06:58:28;3.60;;;3.30;;
11996;SDS011;6058;48.704;9.474;2023-06-14T07:00:55;4.55;;;3.70;;
11996;SDS011;6058;48.704;9.474;2023-06-14T07:03:22;5.63;;;3.35;;
11996;SDS011;6058;48.704;9.474;2023-06-14T07:05:49;5.50;;;3.47;;
11996;SDS011;6058;48.704;9.474;2023-06-14T07:08:18;6.35;;;3.58;;
11996;SDS011;6058;48.704;9.474;2023-06-14T07:10:45;4.15;;;3.75;;
11996;SDS011;6058;48.704;9.474;2023-06-14T07:13:12;4.40;;;3.25;;
11996;SDS011;6058;48.704;9.474;2023-06-14T07:15:40;4.35;;;2.92;;
11996;SDS011;6058;48.704;9.474;2023-06-14T07:18:07;4.80;;;3.60;;
11996;SDS011;6058;48.704;9.474;2023-06-14T07:20:34;3.83;;;3.13;;
11996;SDS011;6058;48.704;9.474;2023-06-14T07:23:03;2.80;;;2.60;;
11996;SDS011;6058;48.704;9.474;2023-06-14T07:25:33;3.67;;;3.25;;
11996;SDS011;6058;48.704;9.474;2023-06-14T07:28:00;4.53;;;2.95;;
11996;SDS011;6058;48.704;9.474;2023-06-14T07:30:27;3.05;;;2.80;;
11996;SDS011;6058;48.704;9.474;2023-06-14T07:32:55;3.53;;;2.95;;
11996;SDS011;6058;48.704;9.474;2023-06-14T07:35:22;2.65;;;2.45;;
11996;SDS011;6058;48.704;9.474;2023-06-14T07:37:49;3.50;;;2.80;;
11996;SDS011;6058;48.704;9.474;2023-06-14T07:40:16;3.60;;;2.92;;
11996;SDS011;6058;48.704;9.474;2023-06-14T07:42:45;3.78;;;2.90;;
11996;SDS011;6058;48.704;9.474;2023-06-14T07:45:12;3.50;;;2.80;;
11996;SDS011;6058;48.704;9.474;2023-06-14T07:47:40;3.63;;;2.70;;
11996;SDS011;6058;48.704;9.474;2023-06-14T07:50:07;6.47;;;2.42;;
11996;SDS011;6058;48.704;9.474;2023-06-14T07:52:34;3.58;;;3.15;;
11996;SDS011;6058;48.704;9.474;2023-06-14T07:55:01;3.63;;;2.80;;
11996;SDS011;6058;48.704;9.474;2023-06-14T07:57:29;5.40;;;3.25;;
11996;SDS011;6058;48.704;9.474;2023-06-14T07:59:57;6.22;;;4.07;;
11996;SDS011;6058;48.704;9.474;2023-06-14T08:02:24;5.38;;;3.17;;
11996;SDS011;6058;48.704;9.474;2023-06-14T08:04:51;3.03;;;2.72;;
11996;SDS011;6058;48.704;9.474;2023-06-14T08:07:19;3.05;;;2.53;;
11996;SDS011;6058;48.704;9.474;2023-06-14T08:09:46;3.13;;;2.80;;
11996;SDS011;6058;48.704;9.474;2023-06-14T08:12:13;10.45;;;3.75;;
11996;SDS011;6058;48.704;9.474;2023-06-14T08:14:41;4.00;;;3.22;;
11996;SDS011;6058;48.704;9.474;2023-06-14T08:17:10;3.60;;;2.63;;
11996;SDS011;6058;48.704;9.474;2023-06-14T08:19:37;2.92;;;2.70;;
11996;SDS011;6058;48.704;9.474;2023-06-14T08:22:04;3.58;;;2.90;;
11996;SDS011;6058;48.704;9.474;2023-06-14T08:24:32;3.67;;;3.33;;
11996;SDS011;6058;48.704;9.474;2023-06-14T08:26:59;3.20;;;2.90;;
11996;SDS011;6058;48.704;9.474;2023-06-14T08:29:27;3.85;;;3.05;;
11996;SDS011;6058;48.704;9.474;2023-06-14T08:31:55;3.10;;;2.90;;
11996;SDS011;6058;48.704;9.474;2023-06-14T08:34:24;4.05;;;2.90;;
11996;SDS011;6058;48.704;9.474;2023-06-14T08:36:51;3.05;;;2.63;;
11996;SDS011;6058;48.704;9.474;2023-06-14T08:39:18;4.70;;;2.88;;
11996;SDS011;6058;48.704;9.474;2023-06-14T08:41:46;5.38;;;2.80;;
11996;SDS011;6058;48.704;9.474;2023-06-14T08:44:13;4.30;;;2.75;;
11996;SDS011;6058;48.704;9.474;2023-06-14T08:46:40;5.03;;;2.75;;
11996;SDS011;6058;48.704;9.474;2023-06-14T08:49:08;2.70;;;2.50;;
11996;SDS011;6058;48.704;9.474;2023-06-14T08:51:39;4.53;;;2.70;;
11996;SDS011;6058;48.704;9.474;2023-06-14T08:54:06;4.07;;;3.00;;
11996;SDS011;6058;48.704;9.474;2023-06-14T08:56:34;3.67;;;3.28;;
11996;SDS011;6058;48.704;9.474;2023-06-14T08:59:06;3.15;;;2.80;;
11996;SDS011;6058;48.704;9.474;2023-06-14T09:01:35;3.47;;;3.17;;
11996;SDS011;6058;48.704;9.474;2023-06-14T09:04:03;5.50;;;2.97;;
11996;SDS011;6058;48.704;9.474;2023-06-14T09:06:31;3.58;;;3.00;;
11996;SDS011;6058;48.704;9.474;2023-06-14T09:08:59;3.72;;;3.03;;
11996;SDS011;6058;48.704;9.474;2023-06-14T09:11:29;2.97;;;2.50;;
11996;SDS011;6058;48.704;9.474;2023-06-14T09:13:57;2.83;;;2.60;;
11996;SDS011;6058;48.704;9.474;2023-06-14T09:16:24;4.30;;;2.50;;
11996;SDS011;6058;48.704;9.474;2023-06-14T09:18:52;3.00;;;2.70;;
11996;SDS011;6058;48.704;9.474;2023-06-14T09:21:20;3.40;;;3.17;;
11996;SDS011;6058;48.704;9.474;2023-06-14T09:23:47;5.50;;;3.17;;
11996;SDS011;6058;48.704;9.474;2023-06-14T09:26:16;4.13;;;3.10;;
11996;SDS011;6058;48.704;9.474;2023-06-14T09:28:45;4.15;;;3.20;;
11996;SDS011;6058;48.704;9.474;2023-06-14T09:31:12;4.78;;;3.15;;
11996;SDS011;6058;48.704;9.474;2023-06-14T09:33:47;3.67;;;3.10;;
11996;SDS011;6058;48.704;9.474;2023-06-14T09:36:14;5.75;;;2.92;;
11996;SDS011;6058;48.704;9.474;2023-06-14T09:38:44;3.65;;;3.10;;
11996;SDS011;6058;48.704;9.474;2023-06-14T09:41:19;3.58;;;3.28;;
11996;SDS011;6058;48.704;9.474;2023-06-14T09:43:47;7.50;;;3.05;;
11996;SDS011;6058;48.704;9.474;2023-06-14T09:46:14;3.30;;;2.92;;
11996;SDS011;6058;48.704;9.474;2023-06-14T09:48:41;4.75;;;2.90;;
11996;SDS011;6058;48.704;9.474;2023-06-14T09:51:09;6.28;;;3.00;;
11996;SDS011;6058;48.704;9.474;2023-06-14T09:53:37;3.58;;;3.08;;
11996;SDS011;6058;48.704;9.474;2023-06-14T09:56:05;3.05;;;2.85;;
11996;SDS011;6058;48.704;9.474;2023-06-14T09:58:34;4.18;;;2.63;;
11996;SDS011;6058;48.704;9.474;2023-06-14T10:01:04;3.00;;;2.60;;
11996;SDS011;6058;48.704;9.474;2023-06-14T10:03:33;5.32;;;2.88;;
11996;SDS011;6058;48.704;9.474;2023-06-14T10:06:02;3.30;;;2.55;;
11996;SDS011;6058;48.704;9.474;2023-06-14T10:08:30;4.93;;;3.28;;
11996;SDS011;6058;48.704;9.474;2023-06-14T10:10:58;7.88;;;2.90;;
11996;SDS011;6058;48.704;9.474;2023-06-14T10:13:25;3.10;;;2.80;;
11996;SDS011;6058;48.704;9.474;2023-06-14T10:15:57;4.45;;;3.30;;
11996;SDS011;6058;48.704;9.474;2023-06-14T10:18:28;13.45;;;3.13;;
11996;SDS011;6058;48.704;9.474;2023-06-14T10:21:01;3.05;;;2.70;;
11996;SDS011;6058;48.704;9.474;2023-06-14T10:23:33;4.13;;;3.50;;
11996;SDS011;6058;48.704;9.474;2023-06-14T10:26:02;3.53;;;3.22;;
11996;SDS011;6058;48.704;9.474;2023-06-14T10:28:29;4.90;;;3.15;;
11996;SDS011;6058;48.704;9.474;2023-06-14T10:31:08;4.60;;;2.92;;
11996;SDS011;6058;48.704;9.474;2023-06-14T10:33:35;3.45;;;3.15;;
11996;SDS011;6058;48.704;9.474;2023-06-14T10:36:09;3.30;;;3.00;;
11996;SDS011;6058;48.704;9.474;2023-06-14T10:38:37;3.80;;;3.25;;
11996;SDS011;6058;48.704;9.474;2023-06-14T10:41:04;3.20;;;2.90;;
11996;SDS011;6058;48.704;9.474;2023-06-14T10:43:32;5.53;;;3.38;;
11996;SDS011;6058;48.704;9.474;2023-06-14T10:46:15;3.45;;;3.15;;
11996;SDS011;6058;48.704;9.474;2023-06-14T10:48:42;3.90;;;3.00;;
11996;SDS011;6058;48.704;9.474;2023-06-14T10:51:16;4.68;;;3.22;;
11996;SDS011;6058;48.704;9.474;2023-06-14T10:53:45;4.93;;;3.25;;
11996;SDS011;6058;48.704;9.474;2023-06-14T10:56:23;2.97;;;2.78;;
11996;SDS011;6058;48.704;9.474;2023-06-14T10:58:51;3.85;;;3.53;;
11996;SDS011;6058;48.704;9.474;2023-06-14T11:01:31;5.07;;;3.17;;
11996;SDS011;6058;48.704;9.474;2023-06-14T11:04:06;5.97;;;2.78;;
11996;SDS011;6058;48.704;9.474;2023-06-14T11:06:38;4.38;;;3.00;;
11996;SDS011;6058;48.704;9.474;2023-06-14T11:11:55;4.25;;;2.90;;
11996;SDS011;6058;48.704;9.474;2023-06-14T11:14:23;4.25;;;3.00;;
11996;SDS011;6058;48.704;9.474;2023-06-14T11:16:51;3.35;;;3.05;;
11996;SDS011;6058;48.704;9.474;2023-06-14T11:19:18;4.88;;;2.97;;
11996;SDS011;6058;48.704;9.474;2023-06-14T11:21:47;4.30;;;2.88;;
11996;SDS011;6058;48.704;9.474;2023-06-14T11:24:14;3.83;;;3.42;;
11996;SDS011;6058;48.704;9.474;2023-06-14T11:26:41;5.95;;;3.67;;
11996;SDS011;6058;48.704;9.474;2023-06-14T11:29:09;6.65;;;2.95;;
11996;SDS011;6058;48.704;9.474;2023-06-14T11:31:36;4.05;;;2.80;;
11996;SDS011;6058;48.704;9.474;2023-06-14T11:34:04;3.28;;;2.90;;
11996;SDS011;6058;48.704;9.474;2023-06-14T11:36:33;6.78;;;2.78;;
11996;SDS011;6058;48.704;9.474;2023-06-14T11:39:01;4.28;;;3.10;;
11996;SDS011;6058;48.704;9.474;2023-06-14T11:41:49;3.38;;;3.08;;
11996;SDS011;6058;48.704;9.474;2023-06-14T11:44:16;4.82;;;3.40;;
11996;SDS011;6058;48.704;9.474;2023-06-14T11:46:43;4.32;;;2.80;;
11996;SDS011;6058;48.704;9.474;2023-06-14T11:49:12;3.72;;;2.78;;
11996;SDS011;6058;48.704;9.474;2023-06-14T11:51:40;3.45;;;3.10;;
11996;SDS011;6058;48.704;9.474;2023-06-14T11:54:09;3.28;;;2.92;;
11996;SDS011;6058;48.704;9.474;2023-06-14T11:56:37;3.97;;;3.38;;
11996;SDS011;6058;48.704;9.474;2023-06-14T11:59:04;6.90;;;2.88;;
11996;SDS011;6058;48.704;9.474;2023-06-14T12:01:32;3.47;;;3.17;;
11996;SDS011;6058;48.704;9.474;2023-06-14T12:03:59;5.18;;;3.10;;
11996;SDS011;6058;48.704;9.474;2023-06-14T12:06:28;4.97;;;2.75;;
11996;SDS011;6058;48.704;9.474;2023-06-14T12:08:58;3.38;;;3.08;;
11996;SDS011;6058;48.704;9.474;2023-06-14T12:11:28;4.88;;;2.75;;
11996;SDS011;6058;48.704;9.474;2023-06-14T12:13:56;3.20;;;2.88;;
11996;SDS011;6058;48.704;9.474;2023-06-14T12:16:29;6.22;;;2.85;;
11996;SDS011;6058;48.704;9.474;2023-06-14T12:18:56;4.80;;;3.15;;
11996;SDS011;6058;48.704;9.474;2023-06-14T12:21:28;4.45;;;2.60;;
11996;SDS011;6058;48.704;9.474;2023-06-14T12:23:55;4.15;;;2.92;;
11996;SDS011;6058;48.704;9.474;2023-06-14T12:26:22;5.30;;;2.97;;
11996;SDS011;6058;48.704;9.474;2023-06-14T12:28:54;4.55;;;3.10;;
11996;SDS011;6058;48.704;9.474;2023-06-14T12:31:21;5.65;;;3.40;;
11996;SDS011;6058;48.704;9.474;2023-06-14T12:33:49;2.97;;;2.78;;
11996;SDS011;6058;48.704;9.474;2023-06-14T12:36:16;3.50;;;3.03;;
11996;SDS011;6058;48.704;9.474;2023-06-14T12:38:45;4.00;;;2.78;;
11996;SDS011;6058;48.704;9.474;2023-06-14T12:41:12;3.13;;;2.75;;
11996;SDS011;6058;48.704;9.474;2023-06-14T12:43:40;2.72;;;2.50;;
11996;SDS011;6058;48.704;9.474;2023-06-14T12:46:07;3.83;;;2.80;;
11996;SDS011;6058;48.704;9.474;2023-06-14T12:48:34;3.20;;;2.90;;
11996;SDS011;6058;48.704;9.474;2023-06-14T12:51:01;3.25;;;2.95;;
11996;SDS011;6058;48.704;9.474;2023-06-14T12:53:28;4.53;;;3.00;;
11996;SDS011;6058;48.704;9.474;2023-06-14T12:55:56;4.72;;;3.25;;
11996;SDS011;6058;48.704;9.474;2023-06-14T12:58:23;4.15;;;3.20;;
11996;SDS011;6058;48.704;9.474;2023-06-14T13:00:51;5.32;;;2.72;;
11996;SDS011;6058;48.704;9.474;2023-06-14T13:03:18;3.33;;;2.88;;
11996;SDS011;6058;48.704;9.474;2023-06-14T13:05:45;2.80;;;2.53;;
11996;SDS011;6058;48.704;9.474;2023-06-14T13:08:12;4.03;;;2.85;;
11996;SDS011;6058;48.704;9.474;2023-06-14T13:10:39;3.80;;;3.25;;
11996;SDS011;6058;48.704;9.474;2023-06-14T13:13:09;5.70;;;2.90;;
11996;SDS011;6058;48.704;9.474;2023-06-14T13:15:37;6.00;;;3.03;;
11996;SDS011;6058;48.704;9.474;2023-06-14T13:18:04;2.90;;;2.70;;
11996;SDS011;6058;48.704;9.474;2023-06-14T13:20:31;3.28;;;2.97;;
11996;SDS011;6058;48.704;9.474;2023-06-14T13:22:59;4.13;;;3.10;;
11996;SDS011;6058;48.704;9.474;2023-06-14T13:25:27;7.28;;;3.58;;
11996;SDS011;6058;48.704;9.474;2023-06-14T13:27:54;3.72;;;3.42;;
11996;SDS011;6058;48.704;9.474;2023-06-14T13:30:22;3.28;;;2.90;;
11996;SDS011;6058;48.704;9.474;2023-06-14T13:32:51;5.90;;;2.90;;
11996;SDS011;6058;48.704;9.474;2023-06-14T13:35:18;3.10;;;2.80;;
11996;SDS011;6058;48.704;9.474;2023-06-14T13:37:54;2.85;;;2.45;;
11996;SDS011;6058;48.704;9.474;2023-06-14T13:40:32;4.43;;;3.10;;
11996;SDS011;6058;48.704;9.474;2023-06-14T13:42:59;3.80;;;3.10;;
11996;SDS011;6058;48.704;9.474;2023-06-14T13:45:28;3.05;;;2.72;;
11996;SDS011;6058;48.704;9.474;2023-06-14T13:47:55;3.40;;;3.10;;
11996;SDS011;6058;48.704;9.474;2023-06-14T13:50:22;5.22;;;3.08;;
11996;SDS011;6058;48.704;9.474;2023-06-14T13:52:49;3.80;;;2.78;;
11996;SDS011;6058;48.704;9.474;2023-06-14T13:55:16;4.18;;;2.97;;
11996;SDS011;6058;48.704;9.474;2023-06-14T13:57:45;2.80;;;2.60;;
11996;SDS011;6058;48.704;9.474;2023-06-14T14:00:13;3.20;;;2.88;;
11996;SDS011;6058;48.704;9.474;2023-06-14T14:02:41;3.92;;;2.90;;
11996;SDS011;6058;48.704;9.474;2023-06-14T14:05:08;4.68;;;3.00;;
11996;SDS011;6058;48.704;9.474;2023-06-14T14:07:36;3.20;;;2.90;;
11996;SDS011;6058;48.704;9.474;2023-06-14T14:10:04;4.28;;;3.10;;
11996;SDS011;6058;48.704;9.474;2023-06-14T14:12:32;3.30;;;3.00;;
11996;SDS011;6058;48.704;9.474;2023-06-14T14:15:01;3.65;;;2.70;;
11996;SDS011;6058;48.704;9.474;2023-06-14T14:17:28;3.65;;;2.50;;
11996;SDS011;6058;48.704;9.474;2023-06-14T14:19:57;2.88;;;2.60;;
11996;SDS011;6058;48.704;9.474;2023-06-14T14:22:24;4.15;;;3.00;;
11996;SDS011;6058;48.704;9.474;2023-06-14T14:24:51;4.03;;;2.63;;
11996;SDS011;6058;48.704;9.474;2023-06-14T14:27:18;5.07;;;3.20;;
11996;SDS011;6058;48.704;9.474;2023-06-14T14:29:46;4.03;;;3.05;;
11996;SDS011;6058;48.704;9.474;2023-06-14T14:32:13;3.05;;;2.83;;
11996;SDS011;6058;48.704;9.474;2023-06-14T14:34:40;5.65;;;2.90;;
11996;SDS011;6058;48.704;9.474;2023-06-14T14:37:08;3.60;;;2.95;;
11996;SDS011;6058;48.704;9.474;2023-06-14T14:39:36;3.35;;;3.05;;
11996;SDS011;6058;48.704;9.474;2023-06-14T14:42:03;3.10;;;2.80;;
11996;SDS011;6058;48.704;9.474;2023-06-14T14:44:32;3.53;;;2.88;;
11996;SDS011;6058;48.704;9.474;2023-06-14T14:47:00;3.20;;;2.90;;
11996;SDS011;6058;48.704;9.474;2023-06-14T14:49:27;4.38;;;2.75;;
11996;SDS011;6058;48.704;9.474;2023-06-14T14:51:55;4.55;;;3.10;;
11996;SDS011;6058;48.704;9.474;2023-06-14T14:54:24;4.03;;;2.90;;
11996;SDS011;6058;48.704;9.474;2023-06-14T14:56:51;4.32;;;3.58;;
11996;SDS011;6058;48.704;9.474;2023-06-14T14:59:18;4.25;;;2.95;;
11996;SDS011;6058;48.704;9.474;2023-06-14T15:01:46;3.15;;;2.85;;
11996;SDS011;6058;48.704;9.474;2023-06-14T15:04:14;3.72;;;2.88;;
11996;SDS011;6058;48.704;9.474;2023-06-14T15:06:41;3.63;;;3.08;;
11996;SDS011;6058;48.704;9.474;2023-06-14T15:09:08;3.40;;;3.00;;